Versailles, Illinois
Current Conditions -  °F | °C
As of 1:55 PM on Sunday 23 Nov 2014 (Local Time) from KPPQ Reporting Station
Overcast Overcast  
Wind Chill: 55°   Ceiling: 600
Heat Index: 55°   Visibility: 5mi
Dew Point: 52°   Wind: 12mph
Humidity: 92%   Direction: 150°SSE
Pressure: 29.41"   Gusts: NA
Location:  39.89°N, 90.66°W
Report Text: KPPQ 231955Z AUTO 15010KT 5SM OVC006 13/11 A2941 RMK AO2 P0009 T01250112 PWINO
Loading
Personal Weather Stations






























Interactive Weather Map New forecast layout! Learn more

10-Day Weather Forecast

Advertisements
Track Severe Weather on mobile